Time;durP1;ratioP1;P1;durP2;ratioP2;P2;SDS_P1;SDS_P2;PMS_P1;PMS_P2;Temp;Humidity;BMP_temperature;BMP_pressure;BME280_temperature;BME280_humidity;BME280_pressure;Samples;Min_cycle;Max_cycle;Signal;HPM_P1;HPM_P2
2022/05/17 03:45:41;;;;;;;0.77;0.77;;;;;;;18.17;46.04;97331.47;6144203;23;20214;-91
2022/05/17 03:48:40;;;;;;;1.30;1.20;;;;;;;19.96;47.78;97613.56;6097129;23;20246;-90
2022/05/17 03:51:27;;;;;;;1.50;1.40;;;;;;;18.41;50.45;97364.69;6106930;23;20179;-91
2022/05/17 03:53:59;;;;;;;1.83;1.67;;;;;;;18.29;51.03;97318.38;6101815;23;20198;-91
2022/05/17 03:56:40;;;;;;;1.57;1.47;;;;;;;18.45;51.39;97371.63;6087770;23;20226;-89
2022/05/17 03:59:16;;;;;;;1.30;1.20;;;;;;;17.25;52.12;97143.91;6095706;23;20193;-90
2022/05/17 04:01:54;;;;;;;1.30;1.23;;;;;;;18.23;52.05;97335.97;6077163;23;20254;-90
2022/05/17 04:04:31;;;;;;;2.33;1.20;;;;;;;18.23;52.66;97376.66;6105517;23;20174;-91
2022/05/17 04:07:12;;;;;;;1.67;1.53;;;;;;;20.23;52.80;97739.63;6079201;23;20201;-90
2022/05/17 04:09:43;;;;;;;1.53;1.43;;;;;;;18.03;52.70;97319.91;6097249;23;20171;-90
2022/05/17 04:12:28;;;;;;;2.87;1.40;;;;;;;16.24;52.61;96990.91;6085735;23;20171;-89
2022/05/17 04:15:08;;;;;;;1.50;1.40;;;;;;;17.46;52.99;97228.59;6074936;23;20198;-90
2022/05/17 04:17:54;;;;;;;1.60;1.50;;;;;;;17.02;53.11;97152.28;6104717;23;20181;-91
2022/05/17 04:26:34;;;;;;;1.63;1.50;;;;;;;19.09;53.40;97533.69;6156683;23;20198;-90
2022/05/17 04:29:10;;;;;;;1.50;1.40;;;;;;;16.15;53.32;97101.19;6124622;23;20175;-90
2022/05/17 04:31:53;;;;;;;1.50;1.40;;;;;;;16.58;53.53;97140.25;6071049;23;20177;-89
2022/05/17 04:34:34;;;;;;;1.30;1.20;;;;;;;17.67;53.63;97308.25;6108299;23;20159;-89
2022/05/17 04:37:01;;;;;;;1.50;1.40;;;;;;;19.26;53.77;97602.31;6101597;23;20616;-91
2022/05/17 04:39:28;;;;;;;1.60;1.50;;;;;;;16.80;53.42;97201.28;6079112;23;20186;-91
2022/05/17 04:41:54;;;;;;;3.00;1.37;;;;;;;20.12;53.85;97768.94;6103043;23;20163;-94
2022/05/17 04:44:21;;;;;;;1.30;1.20;;;;;;;15.81;53.66;97032.94;6079710;23;20163;-91
2022/05/17 04:46:48;;;;;;;2.63;2.00;;;;;;;17.87;54.53;97432.81;6078759;23;20191;-92
2022/05/17 04:49:15;;;;;;;1.50;1.40;;;;;;;16.63;54.44;97171.78;6079163;23;20171;-92
2022/05/17 04:51:43;;;;;;;1.53;1.43;;;;;;;16.63;53.68;97159.09;6078536;23;20243;-91
2022/05/17 04:54:11;;;;;;;1.43;1.33;;;;;;;21.08;54.13;97932.75;6079797;23;20161;-91
2022/05/17 04:56:38;;;;;;;2.17;1.63;;;;;;;18.00;54.49;97472.34;6079342;23;20198;-90
2022/05/17 04:59:05;;;;;;;2.17;1.53;;;;;;;16.28;53.98;97141.47;6079704;23;20183;-89
2022/05/17 05:01:34;;;;;;;1.60;1.50;;;;;;;17.83;54.24;97397.03;6079552;23;20151;-93
2022/05/17 05:04:01;;;;;;;2.13;1.70;;;;;;;16.72;54.19;97217.00;6102772;23;20161;-91
2022/05/17 05:06:28;;;;;;;1.60;1.50;;;;;;;19.21;54.48;97616.56;6125931;23;20206;-92
2022/05/17 05:08:58;;;;;;;1.80;1.70;;;;;;;17.97;54.73;97444.25;6083057;23;20207;-94
2022/05/17 05:11:24;;;;;;;1.97;1.77;;;;;;;16.17;54.51;97122.41;6080767;23;20151;-94
2022/05/17 05:22:04;;;;;;;2.57;1.80;;;;;;;18.78;54.96;97559.63;6151198;23;20186;-93
2022/05/17 05:24:31;;;;;;;1.80;1.70;;;;;;;18.67;54.89;97595.63;6125436;23;20230;-92
2022/05/17 05:26:58;;;;;;;2.00;1.80;;;;;;;18.79;55.08;97591.03;6102035;23;20178;-93
2022/05/17 05:29:27;;;;;;;1.70;1.60;;;;;;;17.94;54.56;97432.25;6080429;23;20139;-93
2022/05/17 05:32:08;;;;;;;1.73;1.63;;;;;;;15.37;54.86;97030.09;6109985;23;20151;-93
2022/05/17 05:37:13;;;;;;;1.70;1.50;;;;;;;17.13;54.74;97298.28;6149237;23;20189;-92
2022/05/17 05:42:50;;;;;;;1.50;1.40;;;;;;;15.41;55.11;97004.16;6151467;23;20254;-93
2022/05/17 06:20:36;;;;;;;1.63;1.53;;;;;;;16.88;55.57;97308.19;6095410;23;20179;-92
2022/05/17 06:34:05;;;;;;;1.40;1.30;;;;;;;18.98;55.34;97680.97;6147147;23;20183;-91
2022/05/17 06:36:46;;;;;;;2.90;1.50;;;;;;;17.63;55.15;97429.25;6061850;23;20140;-92
2022/05/17 06:47:32;;;;;;;1.83;1.73;;;;;;;17.78;55.71;97473.09;6183880;23;20185;-91
2022/05/17 07:00:54;;;;;;;1.70;1.60;;;;;;;17.67;55.60;97448.88;6151355;23;20168;-92
2022/05/17 07:17:16;;;;;;;1.40;1.30;;;;;;;16.56;55.62;97304.25;6144711;23;20230;-93
2022/05/17 07:19:56;;;;;;;1.70;1.60;;;;;;;17.59;55.79;97467.16;6130020;23;20215;-93
2022/05/17 07:22:23;;;;;;;1.80;1.70;;;;;;;17.67;55.81;97484.47;6081383;23;20171;-90
2022/05/17 07:24:53;;;;;;;1.47;1.37;;;;;;;16.77;55.84;97301.78;6082767;23;20197;-94
2022/05/17 07:27:21;;;;;;;1.40;1.30;;;;;;;16.25;55.74;97197.09;6082233;23;20210;-94
2022/05/17 07:29:48;;;;;;;1.70;1.60;;;;;;;14.43;55.61;96877.28;6081479;23;20154;-93
2022/05/17 07:32:28;;;;;;;1.87;1.40;;;;;;;16.46;55.80;97266.56;6088883;23;20163;-92
2022/05/17 07:34:59;;;;;;;1.57;1.27;;;;;;;16.98;55.84;97372.13;6084374;23;20191;-91
2022/05/17 07:37:26;;;;;;;1.40;1.30;;;;;;;16.12;55.89;97174.56;6106015;23;20155;-91
2022/05/17 07:42:28;;;;;;;1.30;1.30;;;;;;;17.62;56.02;97440.19;6153939;23;20226;-91
2022/05/17 07:44:56;;;;;;;1.60;1.50;;;;;;;19.85;56.06;97862.22;6077217;23;20235;-93
2022/05/17 07:47:23;;;;;;;1.70;1.60;;;;;;;16.74;55.99;97311.78;6076328;23;20179;-92
2022/05/17 07:49:50;;;;;;;1.40;1.30;;;;;;;17.94;55.79;97523.78;6053098;23;20176;-92
2022/05/17 07:52:32;;;;;;;1.40;1.30;;;;;;;17.03;55.76;97385.03;6081945;23;20180;-90
2022/05/17 07:55:14;;;;;;;1.87;1.70;;;;;;;19.89;56.13;97854.78;6101406;23;20268;-93
2022/05/17 07:57:54;;;;;;;1.50;1.40;;;;;;;17.99;55.75;97529.94;6060215;23;20228;-91
2022/05/17 08:00:21;;;;;;;1.77;1.60;;;;;;;18.15;55.69;97547.59;6052660;23;20191;-94
2022/05/17 08:02:55;;;;;;;1.37;1.27;;;;;;;16.61;55.63;97277.38;6077766;23;20166;-93
2022/05/17 08:35:58;;;;;;;1.70;1.60;;;;;;;16.33;55.98;97239.78;6150692;23;20183;-94
2022/05/17 09:25:22;;;;;;;1.50;1.40;;;;;;;16.68;55.74;97329.28;6151132;23;20203;-90
2022/05/17 09:27:51;;;;;;;1.33;1.23;;;;;;;16.37;55.76;97211.19;6080383;23;20210;-92
2022/05/17 09:30:32;;;;;;;1.50;1.30;;;;;;;20.78;55.92;97992.84;6079552;23;20182;-94
2022/05/17 09:33:08;;;;;;;1.50;1.40;;;;;;;14.92;56.01;96982.44;6079789;23;20187;-92
2022/05/17 09:35:56;;;;;;;1.40;1.30;;;;;;;20.79;56.27;97969.94;6080368;23;20175;-93
2022/05/17 09:38:42;;;;;;;1.43;1.33;;;;;;;20.79;56.20;98015.03;6104329;23;20155;-90
2022/05/17 09:44:12;;;;;;;1.30;1.20;;;;;;;15.92;55.90;97127.16;6148226;23;20294;-92
2022/05/17 09:46:44;;;;;;;1.60;1.50;;;;;;;18.27;56.12;97578.63;6096913;23;20175;-93
2022/05/17 09:52:38;;;;;;;3.07;1.53;;;;;;;20.79;56.28;97972.47;6104434;23;20171;-93
2022/05/17 09:55:24;;;;;;;1.70;1.60;;;;;;;17.41;56.46;97454.47;6123360;23;20231;-94
2022/05/17 09:57:53;;;;;;;2.10;1.30;;;;;;;17.54;56.56;97444.09;6076827;23;20166;-91
2022/05/17 10:00:25;;;;;;;1.30;1.20;;;;;;;16.37;56.56;97228.06;6075984;23;20195;-94
2022/05/17 10:03:03;;;;;;;1.60;1.50;;;;;;;17.28;56.45;97368.38;6074912;23;20160;-93
2022/05/17 10:05:49;;;;;;;2.80;1.73;;;;;;;17.70;56.37;97483.72;6076279;23;20190;-93
2022/05/17 10:08:15;;;;;;;1.40;1.30;;;;;;;20.81;56.45;97970.84;6077314;23;20203;-94
2022/05/17 10:11:05;;;;;;;1.67;1.33;;;;;;;17.55;56.34;97428.03;6123154;23;20156;-93
2022/05/17 10:13:58;;;;;;;1.47;1.37;;;;;;;20.81;56.18;97975.09;6103158;23;20136;-94
2022/05/17 10:16:53;;;;;;;2.33;1.30;;;;;;;15.47;55.93;97082.03;6099478;23;20211;-91
2022/05/17 10:19:42;;;;;;;1.63;1.53;;;;;;;17.45;56.35;97430.09;6080507;23;20163;-92
2022/05/17 10:22:34;;;;;;;2.00;1.60;;;;;;;16.40;56.18;97213.88;6100219;23;20743;-92
2022/05/17 10:25:10;;;;;;;1.63;1.53;;;;;;;16.18;56.01;97160.50;6076787;23;20207;-93
2022/05/17 10:27:57;;;;;;;1.67;1.57;;;;;;;17.60;56.08;97474.84;6074243;23;20211;-93
2022/05/17 10:30:41;;;;;;;1.40;1.30;;;;;;;17.61;56.94;97407.97;6051937;23;20152;-93
2022/05/17 10:33:12;;;;;;;1.73;1.40;;;;;;;16.18;56.46;97190.03;6074201;23;20168;-94
2022/05/17 10:35:50;;;;;;;1.53;1.43;;;;;;;18.10;55.95;97513.50;6075257;23;20210;-93
2022/05/17 10:38:22;;;;;;;1.40;1.30;;;;;;;16.14;56.33;97183.09;6074674;23;20163;-94
2022/05/17 10:40:50;;;;;;;1.33;1.23;;;;;;;18.03;56.50;97546.22;6072652;23;20190;-90
2022/05/17 10:43:30;;;;;;;1.40;1.30;;;;;;;17.24;56.31;97343.66;6097394;23;20156;-91
2022/05/17 10:46:04;;;;;;;1.50;1.33;;;;;;;15.91;56.58;97103.53;6073740;23;20234;-93
2022/05/17 10:48:50;;;;;;;1.77;1.60;;;;;;;20.79;56.59;97949.50;6095279;23;20207;-91
2022/05/17 10:51:37;;;;;;;1.50;1.40;;;;;;;20.79;56.42;97943.50;6120433;23;20191;-92
2022/05/17 10:54:16;;;;;;;1.57;1.47;;;;;;;16.23;56.42;97188.56;6096437;23;20192;-92
2022/05/17 10:56:42;;;;;;;1.57;1.47;;;;;;;20.79;56.31;97946.06;6074130;23;20178;-89
2022/05/17 10:59:18;;;;;;;1.53;1.40;;;;;;;17.41;56.45;97378.25;6121837;23;20179;-92
2022/05/17 11:01:54;;;;;;;1.50;1.40;;;;;;;20.78;56.58;97941.78;6073919;23;20183;-93
2022/05/17 11:04:24;;;;;;;1.60;1.50;;;;;;;20.78;56.30;97941.78;6118706;23;20634;-91
2022/05/17 11:07:09;;;;;;;1.50;1.40;;;;;;;20.77;56.44;97948.56;6094310;23;20188;-91
2022/05/17 11:09:48;;;;;;;1.23;1.23;;;;;;;17.43;56.74;97398.66;6097372;23;20164;-93
2022/05/17 11:12:15;;;;;;;1.60;1.50;;;;;;;16.10;56.25;97139.00;6098154;23;20152;-93
2022/05/17 11:15:03;;;;;;;1.40;1.30;;;;;;;20.75;56.33;97941.66;6069630;23;20430;-91
2022/05/17 11:17:52;;;;;;;1.27;1.27;;;;;;;20.77;56.50;97940.88;6093916;23;20160;-93
2022/05/17 11:20:24;;;;;;;1.50;1.40;;;;;;;20.77;56.45;97942.56;6094011;23;20154;-92
2022/05/17 11:23:26;;;;;;;1.60;1.50;;;;;;;15.72;56.29;97075.59;6120254;23;20233;-91
2022/05/17 11:26:15;;;;;;;1.40;1.30;;;;;;;20.78;56.55;97941.78;6065148;23;20206;-91
2022/05/17 11:29:14;;;;;;;1.40;1.30;;;;;;;17.60;56.42;97392.66;6119081;23;20186;-92
2022/05/17 11:31:56;;;;;;;1.50;1.40;;;;;;;17.67;56.51;97402.25;6089371;23;20179;-91
2022/05/17 11:34:23;;;;;;;1.60;1.50;;;;;;;20.76;56.42;97928.94;6095937;23;20156;-91
2022/05/17 11:36:54;;;;;;;1.70;1.50;;;;;;;17.49;56.33;97376.97;6121708;23;20152;-91
2022/05/17 11:39:40;;;;;;;1.50;1.40;;;;;;;20.77;56.41;97932.34;6073848;23;20163;-93
2022/05/17 11:42:28;;;;;;;1.87;1.50;;;;;;;20.76;56.65;97918.72;6121274;23;20199;-93
2022/05/17 11:44:56;;;;;;;3.70;1.67;;;;;;;17.86;56.61;97471.72;6096834;23;20219;-94
2022/05/17 11:47:38;;;;;;;1.47;1.37;;;;;;;20.76;55.99;97917.84;6097423;23;20168;-94
2022/05/17 11:50:31;;;;;;;1.60;1.50;;;;;;;17.54;56.59;97372.94;6120799;23;20215;-94
2022/05/17 11:53:37;;;;;;;2.00;1.60;;;;;;;20.75;56.45;97914.41;6065477;23;20156;-93
2022/05/17 11:56:38;;;;;;;;;;;;;;;;;;;;;
2022/05/17 12:03:02;;;;;;;1.93;1.70;;;;;;;17.37;56.30;97333.22;6019743;23;20177;-93
2022/05/17 12:08:44;;;;;;;1.93;1.60;;;;;;;15.67;56.50;97025.56;6150388;23;20187;-92
2022/05/17 12:17:21;;;;;;;2.20;1.70;;;;;;;19.19;56.33;97619.88;6150056;23;20174;-91
2022/05/17 12:20:32;;;;;;;1.60;1.50;;;;;;;20.73;56.31;97903.28;6028996;23;20161;-93
2022/05/17 12:23:28;;;;;;;1.63;1.53;;;;;;;16.75;56.25;97202.75;6037990;23;20319;-93
2022/05/17 12:26:35;;;;;;;1.60;1.50;;;;;;;17.50;56.32;97345.66;5889160;24;20243;-94
2022/05/17 12:33:14;;;;;;;3.83;1.90;;;;;;;17.08;56.53;97279.47;5903629;24;20271;-89
2022/05/17 12:44:08;;;;;;;2.60;1.93;;;;;;;15.18;56.46;96983.63;5894649;24;20180;-92
2022/05/17 12:47:55;;;;;;;2.37;2.00;;;;;;;20.74;56.52;97878.59;5754533;24;20171;-91
2022/05/17 12:51:15;;;;;;;2.00;1.90;;;;;;;15.53;56.56;97027.47;5737362;24;20215;-93
2022/05/17 12:58:15;;;;;;;2.63;2.00;;;;;;;20.73;56.61;97871.75;5691550;24;20164;-90
2022/05/17 13:01:10;;;;;;;2.17;1.97;;;;;;;16.07;56.53;97105.03;5721568;24;20188;-94
2022/05/17 13:15:01;;;;;;;2.27;2.07;;;;;;;20.73;56.59;97871.75;6141561;23;20274;-91
2022/05/17 13:17:52;;;;;;;2.20;2.00;;;;;;;16.52;56.54;97146.78;5992642;23;20206;-92
2022/05/17 13:20:52;;;;;;;2.67;2.20;;;;;;;17.15;56.39;97347.47;6020168;23;20166;-93
2022/05/17 13:35:26;;;;;;;2.60;2.20;;;;;;;15.68;56.92;97067.81;6181826;23;20174;-93
2022/05/17 13:38:58;;;;;;;2.77;2.47;;;;;;;15.23;55.95;96985.56;5998994;23;20187;-91
2022/05/17 13:41:53;;;;;;;2.60;2.40;;;;;;;15.01;56.37;96884.19;6099497;23;20192;-94
2022/05/17 13:44:36;;;;;;;3.20;2.50;;;;;;;16.12;56.44;97050.34;6097350;23;20151;-91
2022/05/17 13:47:05;;;;;;;2.80;2.60;;;;;;;17.68;56.68;97378.63;6051020;23;20191;-92
2022/05/17 13:49:38;;;;;;;4.77;2.53;;;;;;;19.48;56.59;97658.44;6052374;23;20207;-93
2022/05/17 13:52:15;;;;;;;2.93;2.60;;;;;;;18.35;56.97;97430.56;6073801;23;20160;-93
2022/05/17 13:54:43;;;;;;;3.10;2.80;;;;;;;17.49;56.81;97289.69;6099983;23;20183;-93
2022/05/17 13:57:16;;;;;;;2.80;2.50;;;;;;;17.14;56.48;97277.19;6075052;23;20156;-94
2022/05/17 13:59:53;;;;;;;4.23;2.60;;;;;;;20.74;56.61;97866.69;6075215;23;20156;-92
2022/05/17 14:04:54;;;;;;;3.00;2.70;;;;;;;16.85;56.50;97221.78;6093937;23;20188;-93
2022/05/17 14:07:22;;;;;;;4.30;2.90;;;;;;;20.75;57.11;97836.94;6022561;23;20183;-92
2022/05/17 14:13:06;;;;;;;2.93;2.73;;;;;;;17.51;53.65;97298.25;6054118;23;20145;-92
2022/05/17 14:15:55;;;;;;;2.97;2.50;;;;;;;17.40;51.32;97261.34;6023684;23;20183;-94
2022/05/17 14:21:11;;;;;;;2.40;2.20;;;;;;;16.37;49.71;97111.44;6141224;23;20243;-91
2022/05/17 14:23:38;;;;;;;3.40;2.60;;;;;;;17.73;48.79;97300.88;6104230;23;20155;-91
2022/05/17 14:26:33;;;;;;;2.73;2.30;;;;;;;15.62;48.10;96966.22;6118809;23;20206;-89
2022/05/17 14:29:26;;;;;;;3.47;2.60;;;;;;;16.80;48.07;97106.50;6155090;23;20201;-90
2022/05/17 14:32:56;;;;;;;2.67;2.40;;;;;;;20.97;47.09;97817.38;6154420;23;20170;-90
2022/05/17 14:35:38;;;;;;;2.67;2.47;;;;;;;17.96;46.89;97330.63;6159056;23;20204;-90
2022/05/17 14:38:28;;;;;;;2.80;2.60;;;;;;;20.42;46.38;97716.53;6110129;23;20170;-90
2022/05/17 15:16:03;;;;;;;2.70;2.43;;;;;;;14.88;47.80;96679.56;6152851;23;20193;-93
2022/05/17 15:18:50;;;;;;;2.50;2.30;;;;;;;19.02;48.50;97404.38;6132136;23;20179;-94
2022/05/17 16:20:41;;;;;;;4.53;3.80;;;;;;;16.36;53.42;96971.13;6148783;23;20914;-94
2022/05/17 16:23:21;;;;;;;5.40;3.90;;;;;;;21.12;53.65;97754.03;6078823;23;20191;-93
2022/05/17 16:26:01;;;;;;;7.47;3.37;;;;;;;16.86;54.10;97083.94;6126149;23;20203;-94
2022/05/17 16:28:28;;;;;;;4.37;3.93;;;;;;;17.96;53.54;97257.78;6077971;23;20214;-95
2022/05/17 16:31:10;;;;;;;5.27;3.50;;;;;;;19.66;53.99;97544.44;6085839;23;20178;-94
2022/05/17 16:33:38;;;;;;;3.90;3.37;;;;;;;15.38;54.07;96793.91;6078312;23;20163;-94
2022/05/17 16:36:07;;;;;;;4.97;3.70;;;;;;;19.03;54.03;97408.63;6100087;23;20214;-94
2022/05/17 16:38:34;;;;;;;4.10;3.70;;;;;;;18.20;54.11;97271.44;6101790;23;20163;-94
2022/05/17 16:41:14;;;;;;;4.10;3.40;;;;;;;17.93;54.21;97250.03;6085836;23;20186;-94
2022/05/17 16:43:52;;;;;;;3.47;3.17;;;;;;;19.41;54.02;97506.13;6110649;23;20160;-95
2022/05/17 16:49:12;;;;;;;3.67;3.37;;;;;;;19.20;53.74;97468.72;6150967;23;20230;-92
2022/05/17 16:51:39;;;;;;;3.30;3.00;;;;;;;17.98;54.35;97220.56;6075309;23;20175;-94
2022/05/17 16:54:08;;;;;;;3.93;3.20;;;;;;;17.98;54.26;97240.03;6100961;23;20163;-92
2022/05/17 16:56:35;;;;;;;4.10;3.57;;;;;;;17.98;54.41;97283.25;6124116;23;20210;-91
2022/05/17 16:59:02;;;;;;;3.47;3.17;;;;;;;17.18;54.90;97125.03;6076875;23;20167;-94
2022/05/17 17:01:29;;;;;;;5.90;3.50;;;;;;;19.36;54.64;97458.34;6123107;23;20171;-94
2022/05/17 17:03:56;;;;;;;4.13;3.73;;;;;;;15.94;54.56;96870.53;6078430;23;20163;-94
2022/05/17 17:06:27;;;;;;;3.83;3.40;;;;;;;16.64;54.73;97020.44;6078093;23;20195;-94
2022/05/17 17:08:55;;;;;;;4.27;3.33;;;;;;;17.85;54.89;97260.69;6079188;23;20190;-94
2022/05/17 17:11:22;;;;;;;4.63;3.60;;;;;;;18.08;54.94;97301.47;6102684;23;20163;-94
2022/05/17 17:13:48;;;;;;;3.70;3.40;;;;;;;16.39;54.92;97027.03;6103266;23;20155;-94
2022/05/17 17:16:15;;;;;;;3.10;2.90;;;;;;;17.65;54.96;97224.31;6103317;23;20179;-93
2022/05/17 17:18:57;;;;;;;3.87;3.30;;;;;;;18.91;54.98;97396.34;6106988;23;20178;-93
2022/05/17 17:21:24;;;;;;;3.63;3.33;;;;;;;18.07;54.71;97263.28;6078083;23;20159;-94
2022/05/17 17:37:53;;;;;;;3.80;3.40;;;;;;;20.99;55.38;97776.53;6104570;23;20232;-89
2022/05/17 17:41:27;;;;;;;3.87;2.93;;;;;;;20.98;55.56;97762.88;6090249;23;20160;-89
2022/05/17 17:44:28;;;;;;;5.07;3.57;;;;;;;14.76;55.38;96731.28;6100614;23;20160;-90
2022/05/17 17:47:42;;;;;;;4.90;3.57;;;;;;;20.70;55.61;97718.41;6090475;23;20160;-94
2022/05/17 17:50:54;;;;;;;3.33;3.03;;;;;;;17.39;55.80;97201.22;6076078;23;20179;-93
2022/05/17 17:53:53;;;;;;;4.27;3.20;;;;;;;15.13;55.26;96802.91;6050815;23;20168;-94
2022/05/17 17:56:56;;;;;;;3.13;2.83;;;;;;;19.56;55.45;97531.28;6066808;23;20193;-92
2022/05/17 17:59:38;;;;;;;3.27;3.00;;;;;;;17.78;55.43;97224.00;6086777;23;20164;-93
2022/05/17 18:02:19;;;;;;;4.10;3.40;;;;;;;17.84;55.59;97284.38;6067044;23;20160;-92
2022/05/17 18:05:15;;;;;;;3.43;3.13;;;;;;;20.99;55.80;97785.06;6047445;23;20199;-93
2022/05/17 18:08:16;;;;;;;3.40;3.10;;;;;;;20.99;55.64;97785.06;6052781;23;20160;-94
2022/05/17 18:10:57;;;;;;;4.30;2.77;;;;;;;16.48;55.39;97054.47;6073924;23;20172;-93
2022/05/17 18:13:44;;;;;;;3.33;2.90;;;;;;;20.99;55.56;97790.16;6073585;23;20192;-90
2022/05/17 18:16:30;;;;;;;3.60;3.00;;;;;;;16.41;55.51;97016.94;6048647;23;20198;-94
2022/05/17 18:19:24;;;;;;;3.47;3.10;;;;;;;17.71;55.64;97228.81;6072177;23;20155;-93
2022/05/17 18:22:05;;;;;;;3.40;3.00;;;;;;;17.66;55.56;97271.81;6093275;23;20169;-94
2022/05/17 18:24:46;;;;;;;3.13;2.83;;;;;;;16.67;55.80;97086.53;6049466;23;20180;-94
2022/05/17 18:27:20;;;;;;;3.27;2.67;;;;;;;15.84;55.78;96964.69;6068935;23;20648;-94
2022/05/17 18:29:55;;;;;;;3.73;3.17;;;;;;;16.03;55.47;97032.22;6093014;23;20172;-94
2022/05/17 18:32:39;;;;;;;3.33;3.03;;;;;;;16.32;55.72;97041.94;6051248;23;20168;-91
2022/05/17 18:35:33;;;;;;;3.50;2.83;;;;;;;17.86;55.50;97272.63;6072392;23;20207;-94
2022/05/17 18:38:12;;;;;;;3.50;3.20;;;;;;;19.73;55.94;97601.63;6093236;23;20173;-93
2022/05/17 18:43:34;;;;;;;3.57;3.27;;;;;;;17.82;55.75;97335.16;6151063;23;20195;-94
2022/05/17 18:46:01;;;;;;;3.57;2.90;;;;;;;20.97;56.05;97883.81;6073240;23;20179;-94
2022/05/17 18:48:43;;;;;;;2.70;2.50;;;;;;;17.36;56.00;97218.88;6078131;23;20263;-94
2022/05/17 18:51:10;;;;;;;4.90;3.17;;;;;;;16.62;56.03;97108.28;6097395;23;20170;-93
2022/05/17 18:53:50;;;;;;;4.60;3.13;;;;;;;19.18;56.38;97542.56;6079344;23;20200;-94
2022/05/17 18:56:20;;;;;;;3.27;2.90;;;;;;;17.69;56.19;97320.22;6075252;23;20208;-94
2022/05/17 18:58:51;;;;;;;2.83;2.63;;;;;;;16.93;56.05;97185.75;6074885;23;20156;-94
2022/05/17 19:01:19;;;;;;;4.10;3.27;;;;;;;18.13;56.57;97366.13;6073673;23;20164;-93
2022/05/17 19:03:51;;;;;;;3.43;3.13;;;;;;;17.23;56.32;97183.63;6073579;23;20164;-94
2022/05/17 19:06:17;;;;;;;5.17;3.07;;;;;;;17.80;56.45;97296.09;6073721;23;20184;-94
2022/05/17 19:14:29;;;;;;;3.30;3.00;;;;;;;15.59;56.34;96959.38;6099736;23;20167;-95
2022/05/17 19:17:00;;;;;;;2.87;2.67;;;;;;;17.89;56.67;97310.88;6072974;23;20180;-93
2022/05/17 19:19:36;;;;;;;3.70;2.80;;;;;;;16.15;56.77;97027.66;6074111;23;20410;-93
2022/05/17 19:22:13;;;;;;;3.03;2.73;;;;;;;18.46;56.56;97442.03;6097413;23;20175;-93
2022/05/17 19:24:40;;;;;;;2.90;2.60;;;;;;;17.83;56.75;97356.38;6097125;23;20179;-94
2022/05/17 19:27:07;;;;;;;3.23;2.90;;;;;;;18.50;56.80;97467.69;6073497;23;20148;-94
2022/05/17 19:29:37;;;;;;;3.47;2.93;;;;;;;17.72;56.59;97343.22;6097604;23;20184;-94
2022/05/17 19:32:34;;;;;;;3.03;2.83;;;;;;;15.80;56.60;96954.34;6078633;23;20144;-94
2022/05/17 19:35:30;;;;;;;2.83;2.63;;;;;;;16.22;56.42;97045.72;6048255;23;20199;-93
2022/05/17 19:40:46;;;;;;;2.87;2.67;;;;;;;17.93;56.89;97369.53;6072196;23;20194;-94
2022/05/17 19:43:16;;;;;;;3.30;2.93;;;;;;;19.91;56.90;97683.94;6044348;23;20184;-94
2022/05/17 19:45:51;;;;;;;2.80;2.60;;;;;;;16.84;56.82;97139.69;6046757;23;20181;-94
2022/05/17 19:48:20;;;;;;;3.23;2.93;;;;;;;17.86;56.67;97394.63;6044747;23;20155;-94
2022/05/17 19:51:00;;;;;;;2.90;2.70;;;;;;;17.46;57.21;97276.88;6071186;23;20163;-95
2022/05/17 19:53:39;;;;;;;2.70;2.50;;;;;;;16.66;57.01;97153.28;6049495;23;20160;-94
2022/05/17 19:56:09;;;;;;;3.07;2.70;;;;;;;16.04;56.70;97014.53;6044011;23;20290;-94
2022/05/17 19:58:55;;;;;;;3.37;2.80;;;;;;;21.03;57.00;97885.69;6049289;23;20172;-93
2022/05/17 20:01:44;;;;;;;3.10;2.80;;;;;;;17.04;56.79;97187.06;6070617;23;20208;-94
2022/05/17 20:04:41;;;;;;;2.90;2.60;;;;;;;19.99;56.88;97714.00;6050337;23;20156;-94
2022/05/17 20:15:46;;;;;;;2.90;2.70;;;;;;;20.08;56.58;97784.94;6121427;23;20200;-94
2022/05/17 20:18:59;;;;;;;2.90;2.70;;;;;;;21.00;56.71;97886.47;6067560;23;20160;-94
2022/05/17 20:22:06;;;;;;;3.30;3.00;;;;;;;15.55;56.68;97009.81;6070702;23;20232;-94
2022/05/17 20:24:48;;;;;;;2.90;2.67;;;;;;;17.90;56.81;97345.63;6077297;23;20211;-94
2022/05/17 20:27:18;;;;;;;3.03;2.80;;;;;;;19.85;56.71;97699.00;6055192;23;20207;-92
2022/05/17 20:29:45;;;;;;;3.27;2.97;;;;;;;18.28;56.92;97414.16;6071158;23;20196;-93
2022/05/17 20:32:16;;;;;;;2.57;2.37;;;;;;;20.02;56.83;97736.25;6050125;23;20159;-92
2022/05/17 20:34:46;;;;;;;2.73;2.53;;;;;;;20.95;57.20;97875.19;6048853;23;20163;-93
2022/05/17 20:37:16;;;;;;;2.70;2.50;;;;;;;19.25;57.24;97615.00;6050802;23;20192;-93
2022/05/17 20:39:42;;;;;;;2.90;2.70;;;;;;;19.52;57.12;97662.00;6071969;23;20167;-91
2022/05/17 20:42:09;;;;;;;2.80;2.50;;;;;;;18.80;56.99;97503.69;6048582;23;20168;-93
2022/05/17 20:44:37;;;;;;;2.60;2.33;;;;;;;19.45;57.32;97617.53;6072550;23;20187;-93
2022/05/17 20:49:50;;;;;;;2.50;2.30;;;;;;;19.44;56.94;97631.13;6079852;23;20207;-94
2022/05/17 20:52:18;;;;;;;2.83;2.60;;;;;;;18.94;57.01;97556.00;6072261;23;20163;-92
2022/05/17 20:54:45;;;;;;;3.13;2.63;;;;;;;18.42;56.96;97460.56;6048977;23;20196;-93
2022/05/17 20:57:15;;;;;;;2.97;2.73;;;;;;;21.00;57.18;97903.47;6049593;23;20195;-93
2022/05/17 20:59:43;;;;;;;2.63;2.43;;;;;;;18.95;57.15;97545.03;6072894;23;20175;-92
2022/05/17 21:02:14;;;;;;;2.73;2.53;;;;;;;18.67;57.25;97498.88;6048532;23;20229;-91
2022/05/17 21:04:44;;;;;;;3.33;2.97;;;;;;;20.47;57.43;97806.94;6071338;23;20151;-93
2022/05/17 21:07:14;;;;;;;2.80;2.60;;;;;;;18.74;57.38;97519.56;6046924;23;20203;-92
2022/05/17 21:09:42;;;;;;;2.70;2.50;;;;;;;18.99;57.27;97569.78;6047652;23;20206;-92
2022/05/17 21:12:11;;;;;;;3.00;2.50;;;;;;;20.11;57.26;97763.78;6071546;23;20148;-93
2022/05/17 21:14:41;;;;;;;2.87;2.67;;;;;;;19.18;56.99;97625.75;6069617;23;20166;-92
2022/05/17 21:17:08;;;;;;;3.80;2.63;;;;;;;19.45;57.16;97654.94;6047024;23;20179;-92
2022/05/17 21:19:35;;;;;;;2.83;2.63;;;;;;;18.63;57.17;97535.22;6047462;23;20402;-93
2022/05/17 21:22:03;;;;;;;2.83;2.63;;;;;;;20.98;57.39;97921.31;6046944;23;20432;-93
2022/05/17 21:24:38;;;;;;;2.63;2.43;;;;;;;18.76;57.30;97540.88;6050900;23;20170;-93
2022/05/17 21:27:09;;;;;;;2.93;2.70;;;;;;;19.20;57.24;97619.03;6072784;23;20199;-92
2022/05/17 21:29:36;;;;;;;3.13;2.50;;;;;;;19.39;57.20;97672.53;6072252;23;20231;-91
2022/05/17 21:32:04;;;;;;;2.60;2.40;;;;;;;19.44;57.34;97671.00;6048913;23;20174;-93
2022/05/17 21:34:32;;;;;;;2.40;2.20;;;;;;;18.90;57.37;97595.78;6049076;23;20160;-93
2022/05/17 21:36:59;;;;;;;3.10;2.67;;;;;;;19.57;57.30;97681.75;6049916;23;20179;-94
2022/05/17 21:39:29;;;;;;;2.60;2.40;;;;;;;20.96;57.30;97920.38;6073639;23;20156;-93
2022/05/17 21:41:57;;;;;;;2.97;2.70;;;;;;;19.10;57.40;97612.69;6097991;23;20163;-93
2022/05/17 21:44:24;;;;;;;3.67;2.60;;;;;;;20.38;57.17;97827.00;6074047;23;20167;-93
2022/05/17 21:46:51;;;;;;;2.77;2.57;;;;;;;19.47;57.12;97669.47;6050411;23;20179;-93
2022/05/17 21:49:18;;;;;;;2.80;2.60;;;;;;;18.88;57.12;97586.31;6050559;23;20183;-92
2022/05/17 21:51:49;;;;;;;2.50;2.30;;;;;;;18.73;57.20;97561.09;6073681;23;20171;-93
2022/05/17 21:54:17;;;;;;;2.60;2.40;;;;;;;19.55;56.91;97703.78;6052133;23;20211;-93
2022/05/17 21:56:44;;;;;;;2.40;2.20;;;;;;;18.52;57.12;97528.81;6073923;23;20334;-92
2022/05/17 21:59:18;;;;;;;2.70;2.50;;;;;;;19.57;57.36;97708.94;6050997;23;20163;-92
2022/05/17 22:01:48;;;;;;;2.57;2.37;;;;;;;19.28;57.31;97696.69;6075326;23;20198;-93
2022/05/17 22:04:15;;;;;;;2.73;2.40;;;;;;;19.49;57.33;97734.13;6050937;23;20166;-93
2022/05/17 22:06:45;;;;;;;2.90;2.40;;;;;;;19.12;57.17;97659.50;6050417;23;20192;-93
2022/05/17 22:09:12;;;;;;;2.50;2.30;;;;;;;18.39;57.67;97532.53;6073586;23;20198;-92
2022/05/17 22:14:31;;;;;;;2.77;2.57;;;;;;;18.56;57.29;97567.19;6080474;23;20167;-93
2022/05/17 22:16:58;;;;;;;2.47;2.27;;;;;;;20.61;57.28;97912.16;6051478;23;20235;-92
2022/05/17 22:19:27;;;;;;;2.70;2.50;;;;;;;18.93;57.33;97633.22;6050605;23;20164;-92
2022/05/17 22:21:56;;;;;;;2.50;2.30;;;;;;;18.96;57.39;97620.59;6074686;23;20169;-93
2022/05/17 22:24:25;;;;;;;2.70;2.50;;;;;;;19.15;57.32;97664.72;6050409;23;20197;-92
2022/05/17 22:26:53;;;;;;;2.37;2.20;;;;;;;19.01;57.32;97637.81;6049709;23;20179;-92
2022/05/17 22:29:20;;;;;;;2.53;2.33;;;;;;;18.70;57.57;97583.91;6073603;23;20178;-92